This is the latest recevied weather packets stored in our database for station/object N4BBA. If no packets are shown the sender has not sent any weather packets the latest 1 day(s).
| Time | Temp. | Humidity | Pressure | Rain* | Wind** | Luminosity | Snow |
|---|---|---|---|---|---|---|---|
| 1777990123 | 21.11° C | 68% | 1017.2 hPa | 0 mm | 1.79 m/s, 227° | 560 W/m² | - |
| 1777989820 | 20.56° C | 68% | 1017.3 hPa | 0 mm | 1.79 m/s, 171° | 544 W/m² | - |
| 1777989518 | 20.56° C | 69% | 1017.1 hPa | 0 mm | 2.24 m/s, 256° | 531 W/m² | - |
| 1777989214 | 20.56° C | 70% | 1017.3 hPa | 0 mm | 2.24 m/s, 244° | 518 W/m² | - |
| 1777988910 | 20° C | 70% | 1017.1 hPa | 0 mm | 3.13 m/s, 240° | 506 W/m² | - |
| 1777988607 | 20.56° C | 71% | 1017.1 hPa | 0 mm | 1.79 m/s, 222° | 495 W/m² | - |
| 1777988303 | 20° C | 71% | 1017.1 hPa | 0 mm | 0.89 m/s, 138° | 432 W/m² | - |
| 1777988000 | 20° C | 72% | 1017.1 hPa | 0 mm | 1.34 m/s, 211° | 392 W/m² | - |
| 1777987696 | 20° C | 72% | 1017.2 hPa | 0 mm | 4.47 m/s, 147° | 408 W/m² | - |
| 1777987393 | 19.44° C | 73% | 1017.1 hPa | 0 mm | 1.79 m/s, 271° | 407 W/m² | - |
| 1777987090 | 19.44° C | 73% | 1017.1 hPa | 0 mm | 2.68 m/s, 218° | 419 W/m² | - |
| 1777986788 | 19.44° C | 73% | 1017.1 hPa | 0 mm | 0.89 m/s, 261° | 374 W/m² | - |
| 1777986485 | 18.89° C | 74% | 1017.3 hPa | 0 mm | 2.24 m/s, 197° | 392 W/m² | - |
| 1777986186 | 18.89° C | 74% | 1017.2 hPa | 0 mm | 1.34 m/s, 175° | 302 W/m² | - |
| 1777985880 | 18.89° C | 75% | 1017.2 hPa | 0 mm | 0.89 m/s, 217° | 323 W/m² | - |
| 1777985578 | 18.89° C | 76% | 1017.3 hPa | 0 mm | 1.79 m/s, 223° | 327 W/m² | - |
| 1777985274 | 18.33° C | 77% | 1017.2 hPa | 0 mm | 2.24 m/s, 199° | 299 W/m² | - |
| 1777984971 | 17.78° C | 78% | 1017.1 hPa | 0 mm | 1.34 m/s, 224° | 280 W/m² | - |
| 1777984666 | 17.78° C | 78% | 1017 hPa | 0 mm | 1.79 m/s, 214° | 273 W/m² | - |
| 1777984363 | 17.22° C | 79% | 1017.2 hPa | 0 mm | 1.79 m/s, 142° | 262 W/m² | - |
| 1777984060 | 17.22° C | 81% | 1017 hPa | 0 mm | 1.79 m/s, 183° | 189 W/m² | - |
| 1777983757 | 16.67° C | 82% | 1017 hPa | 0 mm | 0.89 m/s, 195° | 186 W/m² | - |
| 1777983454 | 16.11° C | 83% | 1017.2 hPa | 0 mm | 1.79 m/s, 201° | 197 W/m² | - |
| 1777983150 | 15.56° C | 85% | 1017 hPa | 0 mm | 1.79 m/s, 154° | 73 W/m² | - |
| 1777982847 | 15° C | 85% | 1017 hPa | 0 mm | 0.89 m/s, 143° | 62 W/m² | - |
* Rain latest hour (hover to see other rain measurements)
** Current wind speed in m/s (hover to see current wind gust speed)